createdAt,value
2022-08-20T00:02:14.767Z,9.55
2022-08-20T00:04:42.232Z,11.23
2022-08-20T00:07:09.509Z,10.25
2022-08-20T00:09:37.096Z,12.70
2022-08-20T00:12:06.765Z,13.68
2022-08-20T00:14:35.179Z,11.80
2022-08-20T00:17:05.794Z,12.63
2022-08-20T00:19:33.680Z,14.85
2022-08-20T00:22:01.053Z,13.15
2022-08-20T00:24:28.348Z,15.10
2022-08-20T00:26:55.669Z,11.60
2022-08-20T00:29:23.055Z,13.60
2022-08-20T00:31:51.104Z,11.13
2022-08-20T00:34:19.308Z,10.18
2022-08-20T00:36:46.994Z,9.95
2022-08-20T00:39:14.307Z,13.35
2022-08-20T00:41:41.596Z,11.35
2022-08-20T00:44:21.885Z,11.63
2022-08-20T00:46:51.285Z,10.75
2022-08-20T00:49:32.007Z,13.65
2022-08-20T00:52:12.904Z,13.63
2022-08-20T00:55:00.782Z,12.27
2022-08-20T00:57:43.515Z,11.50
2022-08-20T01:00:39.264Z,13.95
2022-08-20T01:03:10.404Z,15.23
2022-08-20T01:05:42.158Z,10.25
2022-08-20T01:08:09.432Z,12.15
2022-08-20T01:10:42.317Z,11.75
2022-08-20T01:13:15.639Z,13.45
2022-08-20T01:15:47.574Z,11.07
2022-08-20T01:18:27.858Z,14.60
2022-08-20T01:21:03.319Z,11.85
2022-08-20T01:26:40.884Z,11.65
2022-08-20T01:29:19.773Z,12.70
2022-08-20T01:31:47.141Z,13.90
2022-08-20T01:34:20.439Z,14.75
2022-08-20T01:36:53.031Z,12.15
2022-08-20T01:39:26.844Z,12.23
2022-08-20T01:42:30.213Z,15.35
2022-08-20T01:44:57.562Z,13.93
2022-08-20T01:47:38.560Z,21.60
2022-08-20T01:50:24.116Z,14.05
2022-08-20T01:53:37.833Z,12.40
2022-08-20T01:56:14.188Z,12.45
2022-08-20T01:58:56.155Z,13.35
2022-08-20T02:01:45.821Z,13.38
2022-08-20T02:04:17.191Z,14.10
2022-08-20T02:06:56.383Z,12.07
2022-08-20T02:09:37.777Z,12.13
2022-08-20T02:12:08.429Z,12.73
2022-08-20T02:14:51.270Z,12.45
2022-08-20T02:17:22.897Z,12.80
2022-08-20T02:20:00.436Z,11.88
2022-08-20T02:22:50.050Z,16.23
2022-08-20T02:25:23.063Z,11.80
2022-08-20T02:27:52.897Z,14.20
2022-08-20T02:30:34.158Z,12.70
2022-08-20T02:33:06.156Z,11.45
2022-08-20T02:35:35.089Z,14.10
2022-08-20T02:38:03.799Z,12.70
2022-08-20T02:40:32.384Z,12.27
2022-08-20T02:43:02.198Z,12.75
2022-08-20T02:45:37.375Z,14.00
2022-08-20T02:48:05.574Z,13.60
2022-08-20T02:50:33.084Z,11.57
2022-08-20T02:53:00.390Z,13.90
2022-08-20T02:55:28.486Z,11.77
2022-08-20T02:57:59.676Z,12.23
2022-08-20T03:00:38.517Z,12.48
2022-08-20T03:03:11.629Z,13.65
2022-08-20T03:05:42.823Z,12.52
2022-08-20T03:08:13.765Z,12.60
2022-08-20T03:10:44.772Z,11.45
2022-08-20T03:13:14.770Z,16.15
2022-08-20T03:15:51.327Z,15.70
2022-08-20T03:18:22.745Z,12.02
2022-08-20T03:20:51.380Z,16.45
2022-08-20T03:23:21.657Z,19.52
2022-08-20T03:25:49.624Z,22.88
2022-08-20T03:28:19.345Z,16.30
2022-08-20T03:30:47.284Z,15.45
2022-08-20T03:33:16.149Z,14.32
2022-08-20T03:35:43.789Z,13.95
2022-08-20T03:38:14.325Z,15.40
2022-08-20T03:40:43.485Z,14.73
2022-08-20T03:43:12.568Z,16.52
2022-08-20T03:45:43.909Z,15.77
2022-08-20T03:48:17.797Z,16.30
2022-08-20T03:50:47.294Z,15.25
2022-08-20T03:53:15.756Z,13.98
2022-08-20T03:55:53.957Z,14.27
2022-08-20T03:58:34.604Z,13.90
2022-08-20T04:01:06.857Z,13.95
2022-08-20T04:03:35.222Z,14.80
2022-08-20T04:06:03.040Z,15.30
2022-08-20T04:08:31.160Z,16.23
2022-08-20T04:10:59.976Z,14.70
2022-08-20T04:13:30.808Z,16.42
2022-08-20T04:16:01.836Z,16.20
2022-08-20T04:18:29.798Z,16.70
2022-08-20T04:20:57.117Z,15.57
2022-08-20T04:23:24.433Z,15.45
2022-08-20T04:25:51.722Z,15.05
2022-08-20T04:28:27.013Z,16.38
2022-08-20T04:30:59.785Z,16.13
2022-08-20T04:33:35.392Z,15.40
2022-08-20T04:36:06.092Z,15.60
2022-08-20T04:38:47.908Z,15.68
2022-08-20T04:41:24.022Z,14.45
2022-08-20T04:43:56.831Z,15.85
2022-08-20T04:46:28.783Z,14.98
2022-08-20T04:48:57.759Z,14.65
2022-08-20T04:51:26.775Z,13.98
2022-08-20T04:53:57.260Z,16.23
2022-08-20T04:56:38.837Z,16.20
2022-08-20T04:59:07.460Z,13.77
2022-08-20T05:01:35.233Z,16.58
2022-08-20T05:04:02.705Z,16.60
2022-08-20T05:06:32.321Z,18.58
2022-08-20T05:09:01.159Z,21.65
2022-08-20T05:11:34.652Z,20.48
2022-08-20T05:14:08.597Z,19.17
2022-08-20T05:16:41.022Z,20.23
2022-08-20T05:19:12.991Z,22.65
2022-08-20T05:21:41.081Z,18.38
2022-08-20T05:24:10.091Z,17.67
2022-08-20T05:26:37.556Z,19.90
2022-08-20T05:29:06.793Z,18.42
2022-08-20T05:31:35.510Z,24.33
2022-08-20T05:34:12.699Z,22.67
2022-08-20T05:36:50.378Z,21.60
2022-08-20T05:39:23.296Z,21.40
2022-08-20T05:41:51.315Z,27.48
2022-08-20T05:44:19.852Z,33.33
2022-08-20T05:46:48.352Z,26.52
2022-08-20T05:49:20.922Z,22.20
2022-08-20T05:51:51.276Z,24.42
2022-08-20T05:54:18.757Z,22.85
2022-08-20T05:56:46.219Z,21.27
2022-08-20T05:59:14.040Z,23.15
2022-08-20T06:01:42.921Z,23.50
2022-08-20T06:04:31.975Z,27.38
2022-08-20T06:07:07.071Z,25.08
2022-08-20T06:09:36.178Z,23.13
2022-08-20T06:12:08.354Z,20.52
2022-08-20T06:14:36.126Z,23.13
2022-08-20T06:17:17.209Z,20.38
2022-08-20T06:19:47.280Z,18.50
2022-08-20T06:22:19.195Z,18.30
2022-08-20T06:24:52.801Z,11.70
2022-08-20T06:27:21.713Z,13.43
2022-08-20T06:29:50.885Z,13.35
2022-08-20T06:32:31.712Z,14.70
2022-08-20T06:35:03.777Z,14.38
2022-08-20T06:37:36.401Z,11.77
2022-08-20T06:40:11.468Z,15.07
2022-08-20T06:42:47.419Z,10.93
2022-08-20T06:45:25.710Z,13.10
2022-08-20T06:48:01.150Z,9.52
2022-08-20T06:53:20.569Z,12.70
2022-08-20T06:55:55.988Z,11.02
2022-08-20T07:01:11.045Z,12.82
2022-08-20T07:03:55.096Z,14.48
2022-08-20T07:06:27.328Z,18.00
2022-08-20T07:08:55.723Z,22.70
2022-08-20T07:11:27.712Z,19.17
2022-08-20T07:13:58.331Z,16.17
2022-08-20T07:16:26.220Z,13.18
2022-08-20T07:18:53.500Z,15.02
2022-08-20T07:21:20.962Z,12.60
2022-08-20T07:23:49.312Z,11.50
2022-08-20T07:26:17.870Z,15.98
2022-08-20T07:28:46.040Z,19.95
2022-08-20T07:31:32.101Z,13.18
2022-08-20T07:34:03.437Z,10.88
2022-08-20T07:36:31.311Z,12.10
2022-08-20T07:38:58.818Z,12.85
2022-08-20T07:41:26.073Z,14.10
2022-08-20T07:43:53.409Z,14.38
2022-08-20T07:46:21.731Z,15.73
2022-08-20T07:48:51.284Z,21.15
2022-08-20T07:51:22.168Z,21.58
2022-08-20T07:53:51.663Z,17.13
2022-08-20T07:56:24.198Z,18.08
2022-08-20T07:58:56.701Z,18.23
2022-08-20T08:01:30.646Z,17.75
2022-08-20T08:04:00.037Z,18.20
2022-08-20T08:06:31.276Z,17.15
2022-08-20T08:09:12.977Z,17.52
2022-08-20T08:11:50.486Z,14.43
2022-08-20T08:14:24.770Z,17.13
2022-08-20T08:16:57.185Z,14.88
2022-08-20T08:19:28.285Z,17.25
2022-08-20T08:21:57.459Z,16.33
2022-08-20T08:24:28.499Z,16.77
2022-08-20T08:26:56.119Z,14.75
2022-08-20T08:29:23.453Z,14.80
2022-08-20T08:31:50.733Z,13.55
2022-08-20T08:34:18.008Z,15.43
2022-08-20T08:36:45.460Z,21.45
2022-08-20T08:39:12.745Z,15.40
2022-08-20T08:41:50.230Z,12.90
2022-08-20T08:44:27.179Z,13.30
2022-08-20T08:47:13.734Z,12.98
2022-08-20T08:49:41.044Z,11.52
2022-08-20T08:52:33.470Z,11.65
2022-08-20T08:55:08.054Z,12.35
2022-08-20T08:57:35.458Z,10.38
2022-08-20T09:00:15.250Z,12.18
2022-08-20T09:03:04.510Z,12.40
2022-08-20T09:05:46.022Z,9.05
2022-08-20T09:08:20.084Z,7.47
2022-08-20T09:10:47.384Z,8.50
2022-08-20T09:13:14.669Z,9.05
2022-08-20T09:15:42.861Z,6.72
2022-08-20T09:18:10.182Z,7.25
2022-08-20T09:20:37.416Z,8.60
2022-08-20T09:23:07.605Z,6.32
2022-08-20T09:25:34.961Z,6.28
2022-08-20T09:28:02.642Z,6.95
2022-08-20T09:30:31.105Z,6.18
2022-08-20T09:33:00.862Z,7.65
2022-08-20T09:35:29.816Z,7.25
2022-08-20T09:37:57.211Z,6.05
2022-08-20T09:40:24.739Z,5.50
2022-08-20T09:42:52.191Z,6.68
2022-08-20T09:45:20.377Z,6.65
2022-08-20T09:47:54.702Z,3.88
2022-08-20T09:50:30.808Z,4.97
2022-08-20T09:53:02.517Z,4.57
2022-08-20T09:55:53.100Z,5.47
2022-08-20T09:58:51.157Z,3.70
2022-08-20T10:01:21.755Z,4.32
2022-08-20T10:03:51.001Z,4.43
2022-08-20T10:06:20.422Z,5.20
2022-08-20T10:08:49.832Z,5.93
2022-08-20T10:11:18.539Z,5.43
2022-08-20T10:13:46.153Z,8.50
2022-08-20T10:16:13.937Z,6.35
2022-08-20T10:18:41.363Z,7.50
2022-08-20T10:21:12.949Z,4.97
2022-08-20T10:23:40.493Z,6.90
2022-08-20T10:26:12.957Z,4.93
2022-08-20T10:28:40.509Z,6.43
2022-08-20T10:31:12.985Z,5.45
2022-08-20T10:33:42.291Z,4.03
2022-08-20T10:36:15.530Z,6.78
2022-08-20T10:38:44.262Z,3.55
2022-08-20T10:41:12.009Z,7.07
2022-08-20T10:43:39.254Z,5.90
2022-08-20T10:46:06.952Z,5.38
2022-08-20T10:48:34.617Z,6.72
2022-08-20T10:51:01.932Z,4.88
2022-08-20T10:53:29.401Z,4.45
2022-08-20T10:55:57.864Z,5.30
2022-08-20T10:58:27.207Z,3.88
2022-08-20T11:01:05.468Z,3.90
2022-08-20T11:03:32.968Z,7.38
2022-08-20T11:06:00.473Z,3.35
2022-08-20T11:08:34.725Z,3.70
2022-08-20T11:11:05.797Z,4.60
2022-08-20T11:13:35.464Z,3.92
2022-08-20T11:16:04.583Z,5.57
2022-08-20T11:18:33.021Z,3.47
2022-08-20T11:21:01.362Z,8.43
2022-08-20T11:23:28.777Z,3.85
2022-08-20T11:25:58.591Z,3.70
2022-08-20T11:28:31.413Z,3.92
2022-08-20T11:31:01.516Z,4.38
2022-08-20T11:33:29.233Z,5.80
2022-08-20T11:35:57.032Z,2.90
2022-08-20T11:38:24.881Z,5.38
2022-08-20T11:40:52.205Z,3.33
2022-08-20T11:43:19.457Z,3.47
2022-08-20T11:45:54.612Z,3.17
2022-08-20T11:48:23.202Z,2.70
2022-08-20T11:50:50.792Z,3.65
2022-08-20T11:53:18.192Z,2.63
2022-08-20T11:55:47.308Z,5.50
2022-08-20T11:58:15.361Z,4.20
2022-08-20T12:00:42.921Z,3.35
2022-08-20T12:03:11.759Z,5.85
2022-08-20T12:05:44.836Z,2.97
2022-08-20T12:08:25.281Z,3.90
2022-08-20T12:11:02.469Z,3.67
2022-08-20T12:13:48.313Z,4.93
2022-08-20T12:16:19.222Z,3.83
2022-08-20T12:18:48.150Z,3.15
2022-08-20T12:21:16.406Z,6.47
2022-08-20T12:23:44.258Z,3.03
2022-08-20T12:26:11.971Z,4.72
2022-08-20T12:28:39.461Z,2.78
2022-08-20T12:31:06.793Z,3.50
2022-08-20T12:33:34.152Z,2.70
2022-08-20T12:36:01.643Z,3.33
2022-08-20T12:38:28.887Z,3.70
2022-08-20T12:40:56.235Z,3.35
2022-08-20T12:43:25.257Z,3.50
2022-08-20T12:45:52.924Z,3.13
2022-08-20T12:48:21.020Z,4.40
2022-08-20T12:50:49.960Z,6.07
2022-08-20T12:53:17.565Z,3.25
2022-08-20T12:55:46.324Z,3.17
2022-08-20T12:58:13.564Z,2.80
2022-08-20T13:00:47.463Z,3.97
2022-08-20T13:03:20.246Z,2.75
2022-08-20T13:05:48.929Z,3.88
2022-08-20T13:08:17.883Z,5.20
2022-08-20T13:10:46.260Z,3.17
2022-08-20T13:13:17.505Z,2.97
2022-08-20T13:15:48.829Z,5.80
2022-08-20T13:18:16.327Z,3.55
2022-08-20T13:20:43.786Z,3.97
2022-08-20T13:23:11.071Z,5.25
2022-08-20T13:25:38.521Z,2.63
2022-08-20T13:28:06.357Z,5.20
2022-08-20T13:30:38.338Z,5.75
2022-08-20T13:33:05.703Z,2.40
2022-08-20T13:35:33.126Z,3.25
2022-08-20T13:38:00.591Z,2.63
2022-08-20T13:40:28.208Z,3.67
2022-08-20T13:42:55.646Z,3.22
2022-08-20T13:45:22.931Z,3.67
2022-08-20T13:47:55.146Z,3.55
2022-08-20T13:50:25.940Z,2.90
2022-08-20T13:52:53.877Z,2.63
2022-08-20T13:55:25.937Z,2.55
2022-08-20T13:57:55.314Z,3.47
2022-08-20T14:00:32.655Z,2.83
2022-08-20T14:03:03.932Z,3.33
2022-08-20T14:05:32.624Z,2.15
2022-08-20T14:08:21.676Z,3.92
2022-08-20T14:10:51.336Z,3.58
2022-08-20T14:13:23.845Z,2.58
2022-08-20T14:15:51.953Z,2.47
2022-08-20T14:18:19.946Z,3.35
2022-08-20T14:20:47.424Z,3.88
2022-08-20T14:23:15.953Z,4.45
2022-08-20T14:25:47.926Z,2.10
2022-08-20T14:28:23.956Z,1.90
2022-08-20T14:30:53.129Z,1.88
2022-08-20T14:33:24.441Z,2.00
2022-08-20T14:35:52.814Z,2.85
2022-08-20T14:38:20.064Z,2.55
2022-08-20T14:40:47.460Z,2.00
2022-08-20T14:43:14.898Z,2.08
2022-08-20T14:45:42.133Z,2.15
2022-08-20T14:48:09.408Z,2.35
2022-08-20T14:50:38.021Z,4.35
2022-08-20T14:53:06.523Z,1.80
2022-08-20T14:55:37.715Z,3.40
2022-08-20T14:58:11.506Z,1.50
2022-08-20T15:00:39.831Z,3.70
2022-08-20T15:03:07.526Z,3.33
2022-08-20T15:05:39.523Z,1.65
2022-08-20T15:08:08.668Z,3.40
2022-08-20T15:10:39.358Z,2.85
2022-08-20T15:13:07.221Z,1.40
2022-08-20T15:15:35.327Z,2.28
2022-08-20T15:18:03.422Z,2.10
2022-08-20T15:20:35.025Z,2.25
2022-08-20T15:23:03.844Z,4.05
2022-08-20T15:25:37.071Z,2.83
2022-08-20T15:28:09.003Z,2.47
2022-08-20T15:30:40.189Z,1.70
2022-08-20T15:33:09.197Z,2.65
2022-08-20T15:35:37.116Z,3.25
2022-08-20T15:38:04.368Z,1.70
2022-08-20T15:40:33.547Z,1.75
2022-08-20T15:43:04.300Z,3.05
2022-08-20T15:45:33.425Z,1.30
2022-08-20T15:48:13.360Z,1.73
2022-08-20T15:51:19.535Z,1.77
2022-08-20T15:54:06.758Z,2.15
2022-08-20T15:57:38.890Z,1.73
2022-08-20T16:00:21.271Z,1.77
2022-08-20T16:03:37.616Z,1.48
2022-08-20T16:06:25.674Z,1.52
2022-08-20T16:09:14.586Z,1.40
2022-08-20T16:12:12.350Z,1.73
2022-08-20T16:14:47.857Z,1.67
2022-08-20T16:17:37.240Z,3.80
2022-08-20T16:20:35.863Z,1.88
2022-08-20T16:23:04.256Z,1.85
2022-08-20T16:26:05.408Z,1.48
2022-08-20T16:29:41.040Z,1.95
2022-08-20T16:32:33.508Z,3.53
2022-08-20T16:35:33.202Z,2.72
2022-08-20T16:38:38.225Z,1.30
2022-08-20T16:41:34.981Z,1.40
2022-08-20T16:44:30.694Z,1.42
2022-08-20T16:47:20.902Z,1.70
2022-08-20T16:50:11.319Z,2.25
2022-08-20T16:52:45.384Z,1.60
2022-08-20T16:55:14.848Z,1.27
2022-08-20T16:57:42.845Z,3.72
2022-08-20T17:00:39.013Z,2.97
2022-08-20T17:03:31.640Z,1.60
2022-08-20T17:06:36.989Z,1.52
2022-08-20T17:09:13.015Z,1.45
2022-08-20T17:11:41.505Z,2.97
2022-08-20T17:14:18.772Z,3.88
2022-08-20T17:16:53.053Z,1.40
2022-08-20T17:19:29.685Z,2.88
2022-08-20T17:22:11.530Z,1.42
2022-08-20T17:24:40.139Z,1.45
2022-08-20T17:27:28.026Z,1.20
2022-08-20T17:30:20.082Z,1.50
2022-08-20T17:33:01.109Z,1.77
2022-08-20T17:36:02.492Z,2.15
2022-08-20T17:38:56.278Z,1.67
2022-08-20T17:41:35.915Z,2.53
2022-08-20T17:44:09.172Z,2.17
2022-08-20T17:46:45.699Z,7.38
2022-08-20T17:49:21.465Z,3.55
2022-08-20T17:51:54.410Z,4.72
2022-08-20T17:54:32.787Z,5.07
2022-08-20T17:57:11.373Z,8.38
2022-08-20T18:00:02.337Z,2.58
2022-08-20T18:02:34.786Z,1.92
2022-08-20T18:05:06.810Z,2.95
2022-08-20T18:08:16.707Z,1.90
2022-08-20T18:11:56.303Z,1.85
2022-08-20T18:15:09.274Z,5.13
2022-08-20T18:18:07.145Z,6.72
2022-08-20T18:21:20.430Z,6.07
2022-08-20T18:24:30.241Z,1.80
2022-08-20T18:27:08.772Z,3.67
2022-08-20T18:29:42.545Z,2.35
2022-08-20T18:32:34.085Z,2.38
2022-08-20T18:35:45.744Z,4.32
2022-08-20T18:38:22.842Z,2.22
2022-08-20T18:40:55.109Z,2.60
2022-08-20T18:43:31.351Z,1.77
2022-08-20T18:46:35.180Z,2.28
2022-08-20T18:49:07.648Z,2.33
2022-08-20T18:51:49.606Z,2.92
2022-08-20T18:54:32.349Z,1.40
2022-08-20T18:57:21.989Z,3.22
2022-08-20T19:00:14.653Z,4.82
2022-08-20T19:03:20.715Z,2.03
2022-08-20T19:06:20.653Z,3.03
2022-08-20T19:09:43.288Z,2.83
2022-08-20T19:13:16.900Z,2.72
2022-08-20T19:15:54.146Z,4.15
2022-08-20T19:18:40.781Z,1.73
2022-08-20T19:21:15.911Z,4.15
2022-08-20T19:23:53.399Z,3.92
2022-08-20T19:26:25.158Z,2.05
2022-08-20T19:29:09.275Z,2.15
2022-08-20T19:31:36.964Z,2.38
2022-08-20T19:34:22.339Z,3.20
2022-08-20T19:37:32.778Z,2.97
2022-08-20T19:40:08.496Z,1.88
2022-08-20T19:42:43.113Z,2.85
2022-08-20T19:45:46.600Z,2.40
2022-08-20T19:49:10.091Z,7.20
2022-08-20T19:51:58.393Z,2.60
2022-08-20T19:54:29.437Z,3.58
2022-08-20T19:57:06.897Z,3.40
2022-08-20T19:59:34.737Z,4.95
2022-08-20T20:02:20.588Z,2.63
2022-08-20T20:04:54.972Z,3.40
2022-08-20T20:07:45.316Z,2.40
2022-08-20T20:10:32.743Z,5.40
2022-08-20T20:13:19.881Z,5.18
2022-08-20T20:15:50.535Z,4.00
2022-08-20T20:18:17.839Z,3.80
2022-08-20T20:20:58.136Z,4.75
2022-08-20T20:23:41.691Z,5.18
2022-08-20T20:26:20.208Z,5.32
2022-08-20T20:29:01.927Z,5.55
2022-08-20T20:31:38.409Z,4.57
2022-08-20T20:34:13.861Z,4.40
2022-08-20T20:36:46.894Z,3.42
2022-08-20T20:39:33.608Z,5.35
2022-08-20T20:42:12.760Z,4.30
2022-08-20T20:44:44.693Z,4.47
2022-08-20T20:47:32.010Z,5.50
2022-08-20T20:50:08.105Z,3.78
2022-08-20T20:52:51.627Z,6.78
2022-08-20T20:55:37.678Z,8.52
2022-08-20T20:58:05.489Z,5.88
2022-08-20T21:00:35.117Z,4.63
2022-08-20T21:03:02.843Z,5.95
2022-08-20T21:05:32.911Z,3.53
2022-08-20T21:08:04.596Z,3.47
2022-08-20T21:10:37.034Z,5.68
2022-08-20T21:13:08.121Z,5.45
2022-08-20T21:15:38.483Z,5.65
2022-08-20T21:18:09.076Z,3.53
2022-08-20T21:20:36.809Z,5.35
2022-08-20T21:23:04.949Z,5.28
2022-08-20T21:25:34.098Z,6.15
2022-08-20T21:28:02.046Z,3.40
2022-08-20T21:30:31.358Z,4.38
2022-08-20T21:32:58.954Z,4.72
2022-08-20T21:35:26.811Z,3.60
2022-08-20T21:37:54.299Z,6.25
2022-08-20T21:40:22.065Z,6.32
2022-08-20T21:42:50.013Z,5.97
2022-08-20T21:45:19.521Z,5.22
2022-08-20T21:47:49.046Z,4.28
2022-08-20T21:50:19.304Z,3.92
2022-08-20T21:52:55.101Z,7.22
2022-08-20T21:55:28.691Z,5.78
2022-08-20T21:57:57.585Z,5.57
2022-08-20T22:00:56.708Z,5.35
2022-08-20T22:03:38.681Z,3.80
2022-08-20T22:06:09.591Z,4.80
2022-08-20T22:08:37.509Z,3.88
2022-08-20T22:11:07.644Z,3.00
2022-08-20T22:13:35.840Z,3.70
2022-08-20T22:16:09.671Z,3.40
2022-08-20T22:18:37.839Z,3.63
2022-08-20T22:21:11.639Z,3.50
2022-08-20T22:23:40.150Z,4.55
2022-08-20T22:26:08.505Z,8.02
2022-08-20T22:28:36.977Z,3.22
2022-08-20T22:31:05.473Z,3.50
2022-08-20T22:33:34.194Z,2.85
2022-08-20T22:36:04.670Z,3.92
2022-08-20T22:38:32.145Z,2.58
2022-08-20T22:40:59.566Z,5.00
2022-08-20T22:43:26.869Z,4.72
2022-08-20T22:46:00.041Z,4.38
2022-08-20T22:48:28.253Z,4.00
2022-08-20T22:50:58.076Z,5.50
2022-08-20T22:53:27.097Z,6.70
2022-08-20T22:55:54.953Z,3.28
2022-08-20T22:58:30.923Z,5.32
2022-08-20T23:01:02.167Z,3.55
2022-08-20T23:03:40.199Z,5.45
2022-08-20T23:06:09.568Z,3.55
2022-08-20T23:08:38.094Z,4.63
2022-08-20T23:11:06.163Z,3.28
2022-08-20T23:13:34.531Z,5.55
2022-08-20T23:16:02.060Z,3.22
2022-08-20T23:18:29.386Z,3.72
2022-08-20T23:20:59.115Z,5.32
2022-08-20T23:23:27.613Z,3.22
2022-08-20T23:25:55.709Z,3.58
2022-08-20T23:28:25.688Z,5.63
2022-08-20T23:30:53.374Z,4.22
2022-08-20T23:33:21.072Z,2.53
2022-08-20T23:35:48.876Z,3.55
2022-08-20T23:38:16.461Z,2.55
2022-08-20T23:40:44.023Z,4.60
2022-08-20T23:43:11.262Z,3.60
2022-08-20T23:45:40.848Z,2.45
2022-08-20T23:48:08.464Z,3.20
2022-08-20T23:50:37.625Z,5.15
2022-08-20T23:53:05.356Z,2.08
2022-08-20T23:55:32.856Z,4.25
2022-08-20T23:58:00.296Z,3.83
